North Kingsville, Ohio
Current Conditions -  °F | °C
As of 8:53 PM on Friday 24 Oct 2014 (Local Time) from KHZY Reporting Station
Overcast Overcast  
Wind Chill: 48°   Ceiling: 5500
Heat Index: 48°   Visibility: 10mi
Dew Point: 44°   Wind: 0mph
Humidity: 86%   Direction: NA
Pressure: 30.01"   Gusts: NA
Location:  41.91°N, 80.69°W
Report Text: KHZY 250053Z AUTO 00000KT 10SM FEW041 OVC055 09/07 A3001 RMK AO2 SLP165 T00890067
Loading
Personal Weather Stations






























Interactive Weather Map
Tropical Storm Tracking
New forecast layout! Learn more

10-Day Weather Forecast

Advertisements
Track Severe Weather on mobile